sensor_id;sensor_type;location;lat;lon;timestamp;pressure;altitude;pressure_sealevel;temperature;humidity
7918;BME280;4004;42.624;23.386;2022-10-31T00:01:23;94625.84;;;13.93;59.58
7918;BME280;4004;42.624;23.386;2022-10-31T00:03:50;94621.16;;;13.90;59.55
7918;BME280;4004;42.624;23.386;2022-10-31T00:06:18;94612.22;;;13.86;59.79
7918;BME280;4004;42.624;23.386;2022-10-31T00:08:45;94609.88;;;13.84;59.92
7918;BME280;4004;42.624;23.386;2022-10-31T00:11:12;94603.94;;;13.75;60.21
7918;BME280;4004;42.624;23.386;2022-10-31T00:13:38;94614.69;;;13.72;60.30
7918;BME280;4004;42.624;23.386;2022-10-31T00:16:13;94617.41;;;13.72;60.62
7918;BME280;4004;42.624;23.386;2022-10-31T00:18:40;94614.31;;;13.70;60.27
7918;BME280;4004;42.624;23.386;2022-10-31T00:21:06;94614.41;;;13.77;60.61
7918;BME280;4004;42.624;23.386;2022-10-31T00:23:35;94613.16;;;13.71;61.20
7918;BME280;4004;42.624;23.386;2022-10-31T00:26:02;94612.09;;;13.52;61.85
7918;BME280;4004;42.624;23.386;2022-10-31T00:28:30;94614.09;;;13.32;63.33
7918;BME280;4004;42.624;23.386;2022-10-31T00:30:58;94617.28;;;13.18;64.52
7918;BME280;4004;42.624;23.386;2022-10-31T00:33:25;94605.50;;;13.07;65.15
7918;BME280;4004;42.624;23.386;2022-10-31T00:35:52;94622.44;;;13.04;65.34
7918;BME280;4004;42.624;23.386;2022-10-31T00:38:19;94617.09;;;13.07;64.96
7918;BME280;4004;42.624;23.386;2022-10-31T00:40:47;94610.25;;;13.14;64.86
7918;BME280;4004;42.624;23.386;2022-10-31T00:43:14;94603.91;;;13.25;64.29
7918;BME280;4004;42.624;23.386;2022-10-31T00:45:41;94607.31;;;13.22;64.50
7918;BME280;4004;42.624;23.386;2022-10-31T00:48:08;94610.41;;;13.21;64.56
7918;BME280;4004;42.624;23.386;2022-10-31T00:50:35;94608.94;;;13.27;64.93
7918;BME280;4004;42.624;23.386;2022-10-31T00:53:02;94612.22;;;13.36;65.23
7918;BME280;4004;42.624;23.386;2022-10-31T00:55:29;94613.53;;;13.46;64.47
7918;BME280;4004;42.624;23.386;2022-10-31T00:57:57;94606.69;;;13.52;64.43
7918;BME280;4004;42.624;23.386;2022-10-31T01:00:24;94610.75;;;13.42;64.73
7918;BME280;4004;42.624;23.386;2022-10-31T01:02:51;94610.44;;;13.24;65.96
7918;BME280;4004;42.624;23.386;2022-10-31T01:05:17;94615.59;;;13.30;65.85
7918;BME280;4004;42.624;23.386;2022-10-31T01:07:44;94608.91;;;13.23;66.05
7918;BME280;4004;42.624;23.386;2022-10-31T01:10:11;94618.53;;;13.01;66.97
7918;BME280;4004;42.624;23.386;2022-10-31T01:12:39;94609.69;;;12.81;67.87
7918;BME280;4004;42.624;23.386;2022-10-31T01:15:09;94621.69;;;12.84;68.54
7918;BME280;4004;42.624;23.386;2022-10-31T01:17:36;94612.47;;;12.85;68.32
7918;BME280;4004;42.624;23.386;2022-10-31T01:20:04;94621.34;;;12.85;68.80
7918;BME280;4004;42.624;23.386;2022-10-31T01:22:31;94618.06;;;12.76;69.25
7918;BME280;4004;42.624;23.386;2022-10-31T01:24:58;94630.53;;;12.84;69.71
7918;BME280;4004;42.624;23.386;2022-10-31T01:27:25;94620.47;;;12.81;70.07
7918;BME280;4004;42.624;23.386;2022-10-31T01:29:52;94630.94;;;12.83;70.38
7918;BME280;4004;42.624;23.386;2022-10-31T01:32:20;94631.41;;;12.89;70.05
7918;BME280;4004;42.624;23.386;2022-10-31T01:34:47;94623.84;;;12.98;69.91
7918;BME280;4004;42.624;23.386;2022-10-31T01:37:13;94623.16;;;13.01;70.52
7918;BME280;4004;42.624;23.386;2022-10-31T01:39:40;94622.09;;;13.05;70.54
7918;BME280;4004;42.624;23.386;2022-10-31T01:42:10;94626.63;;;13.01;70.62
7918;BME280;4004;42.624;23.386;2022-10-31T01:44:59;94633.66;;;13.06;71.00
7918;BME280;4004;42.624;23.386;2022-10-31T01:47:41;94632.88;;;13.05;71.00
7918;BME280;4004;42.624;23.386;2022-10-31T01:50:19;94637.13;;;13.06;71.63
7918;BME280;4004;42.624;23.386;2022-10-31T01:52:51;94638.06;;;12.95;70.90
7918;BME280;4004;42.624;23.386;2022-10-31T01:55:21;94633.81;;;12.94;70.24
7918;BME280;4004;42.624;23.386;2022-10-31T01:57:52;94630.81;;;12.99;69.89
7918;BME280;4004;42.624;23.386;2022-10-31T02:00:21;94616.25;;;13.03;69.74
7918;BME280;4004;42.624;23.386;2022-10-31T02:02:50;94632.94;;;13.09;69.96
7918;BME280;4004;42.624;23.386;2022-10-31T02:05:20;94633.22;;;13.04;69.64
7918;BME280;4004;42.624;23.386;2022-10-31T02:07:54;94630.28;;;12.90;70.89
7918;BME280;4004;42.624;23.386;2022-10-31T02:10:22;94627.28;;;12.75;72.11
7918;BME280;4004;42.624;23.386;2022-10-31T02:12:51;94629.00;;;12.83;71.80
7918;BME280;4004;42.624;23.386;2022-10-31T02:15:18;94626.88;;;12.73;72.47
7918;BME280;4004;42.624;23.386;2022-10-31T02:17:45;94625.75;;;12.74;72.94
7918;BME280;4004;42.624;23.386;2022-10-31T02:20:16;94622.66;;;12.76;72.97
7918;BME280;4004;42.624;23.386;2022-10-31T02:26:13;94634.41;;;12.83;72.68
7918;BME280;4004;42.624;23.386;2022-10-31T02:29:10;94641.00;;;12.67;73.64
7918;BME280;4004;42.624;23.386;2022-10-31T02:31:47;94628.16;;;12.60;74.29
7918;BME280;4004;42.624;23.386;2022-10-31T02:34:20;94633.19;;;12.61;74.80
7918;BME280;4004;42.624;23.386;2022-10-31T02:36:52;94642.16;;;12.65;74.78
7918;BME280;4004;42.624;23.386;2022-10-31T02:39:24;94640.31;;;12.70;74.96
7918;BME280;4004;42.624;23.386;2022-10-31T02:42:01;94644.97;;;12.73;74.84
7918;BME280;4004;42.624;23.386;2022-10-31T02:44:36;94649.31;;;12.77;74.84
7918;BME280;4004;42.624;23.386;2022-10-31T02:47:09;94657.81;;;12.79;75.03
7918;BME280;4004;42.624;23.386;2022-10-31T02:49:42;94655.25;;;12.86;75.21
7918;BME280;4004;42.624;23.386;2022-10-31T02:52:17;94651.00;;;12.85;75.42
7918;BME280;4004;42.624;23.386;2022-10-31T02:54:46;94661.16;;;12.92;75.66
7918;BME280;4004;42.624;23.386;2022-10-31T02:57:15;94658.25;;;13.01;75.16
7918;BME280;4004;42.624;23.386;2022-10-31T02:59:46;94655.75;;;13.12;74.90
7918;BME280;4004;42.624;23.386;2022-10-31T03:02:33;94661.78;;;13.05;74.75
7918;BME280;4004;42.624;23.386;2022-10-31T03:05:27;94658.50;;;12.96;75.38
7918;BME280;4004;42.624;23.386;2022-10-31T03:08:03;94667.84;;;12.98;75.06
7918;BME280;4004;42.624;23.386;2022-10-31T03:10:35;94662.44;;;12.98;74.67
7918;BME280;4004;42.624;23.386;2022-10-31T03:13:10;94660.94;;;13.01;74.22
7918;BME280;4004;42.624;23.386;2022-10-31T03:15:39;94657.88;;;13.02;74.45
7918;BME280;4004;42.624;23.386;2022-10-31T03:18:10;94655.47;;;12.97;74.18
7918;BME280;4004;42.624;23.386;2022-10-31T03:20:41;94658.94;;;12.98;75.05
7918;BME280;4004;42.624;23.386;2022-10-31T03:23:12;94661.09;;;12.89;75.38
7918;BME280;4004;42.624;23.386;2022-10-31T03:25:40;94654.06;;;12.84;75.59
7918;BME280;4004;42.624;23.386;2022-10-31T03:28:10;94654.13;;;12.88;75.84
7918;BME280;4004;42.624;23.386;2022-10-31T03:30:41;94669.94;;;12.89;76.08
7918;BME280;4004;42.624;23.386;2022-10-31T03:33:14;94666.63;;;12.76;76.15
7918;BME280;4004;42.624;23.386;2022-10-31T03:35:46;94671.53;;;12.71;76.29
7918;BME280;4004;42.624;23.386;2022-10-31T03:38:14;94665.06;;;12.75;76.42
7918;BME280;4004;42.624;23.386;2022-10-31T03:40:43;94669.34;;;12.76;76.47
7918;BME280;4004;42.624;23.386;2022-10-31T03:43:15;94675.09;;;12.75;76.36
7918;BME280;4004;42.624;23.386;2022-10-31T03:45:45;94672.81;;;12.77;76.49
7918;BME280;4004;42.624;23.386;2022-10-31T03:48:16;94679.28;;;12.72;76.73
7918;BME280;4004;42.624;23.386;2022-10-31T03:50:49;94669.19;;;12.69;77.19
7918;BME280;4004;42.624;23.386;2022-10-31T03:53:24;94667.34;;;12.73;77.28
7918;BME280;4004;42.624;23.386;2022-10-31T03:55:56;94678.84;;;12.70;77.55
7918;BME280;4004;42.624;23.386;2022-10-31T03:58:27;94686.59;;;12.72;77.74
7918;BME280;4004;42.624;23.386;2022-10-31T04:00:55;94678.56;;;12.75;78.44
7918;BME280;4004;42.624;23.386;2022-10-31T04:03:26;94687.06;;;12.77;79.21
7918;BME280;4004;42.624;23.386;2022-10-31T04:05:56;94689.94;;;12.65;78.84
7918;BME280;4004;42.624;23.386;2022-10-31T04:08:28;94697.69;;;12.51;79.82
7918;BME280;4004;42.624;23.386;2022-10-31T04:10:57;94690.81;;;12.53;79.70
7918;BME280;4004;42.624;23.386;2022-10-31T04:13:28;94691.75;;;12.61;79.50
7918;BME280;4004;42.624;23.386;2022-10-31T04:15:56;94699.56;;;12.66;80.85
7918;BME280;4004;42.624;23.386;2022-10-31T04:18:25;94701.13;;;12.67;81.03
7918;BME280;4004;42.624;23.386;2022-10-31T04:21:00;94688.91;;;12.73;80.62
7918;BME280;4004;42.624;23.386;2022-10-31T04:23:27;94703.69;;;12.79;80.74
7918;BME280;4004;42.624;23.386;2022-10-31T04:25:54;94697.44;;;12.75;80.48
7918;BME280;4004;42.624;23.386;2022-10-31T04:28:21;94692.69;;;12.69;80.59
7918;BME280;4004;42.624;23.386;2022-10-31T04:30:48;94696.38;;;12.80;79.36
7918;BME280;4004;42.624;23.386;2022-10-31T04:33:15;94694.75;;;12.75;78.77
7918;BME280;4004;42.624;23.386;2022-10-31T04:35:43;94695.94;;;12.78;78.97
7918;BME280;4004;42.624;23.386;2022-10-31T04:38:10;94696.75;;;12.78;79.16
7918;BME280;4004;42.624;23.386;2022-10-31T04:40:37;94710.72;;;12.84;80.58
7918;BME280;4004;42.624;23.386;2022-10-31T04:43:04;94708.38;;;12.82;81.27
7918;BME280;4004;42.624;23.386;2022-10-31T04:45:30;94703.41;;;12.84;82.03
7918;BME280;4004;42.624;23.386;2022-10-31T04:47:57;94716.63;;;12.90;81.90
7918;BME280;4004;42.624;23.386;2022-10-31T04:50:24;94709.38;;;12.94;81.73
7918;BME280;4004;42.624;23.386;2022-10-31T04:52:52;94708.03;;;13.03;79.61
7918;BME280;4004;42.624;23.386;2022-10-31T04:55:19;94709.78;;;12.96;79.75
7918;BME280;4004;42.624;23.386;2022-10-31T04:57:47;94720.09;;;12.90;79.21
7918;BME280;4004;42.624;23.386;2022-10-31T05:00:15;94718.34;;;12.78;80.87
7918;BME280;4004;42.624;23.386;2022-10-31T05:02:44;94723.94;;;12.70;81.24
7918;BME280;4004;42.624;23.386;2022-10-31T05:05:11;94712.06;;;12.55;80.79
7918;BME280;4004;42.624;23.386;2022-10-31T05:07:39;94722.31;;;12.49;81.52
7918;BME280;4004;42.624;23.386;2022-10-31T05:10:11;94716.25;;;12.52;82.55
7918;BME280;4004;42.624;23.386;2022-10-31T05:12:45;94714.03;;;12.58;82.82
7918;BME280;4004;42.624;23.386;2022-10-31T05:15:13;94721.78;;;12.59;83.01
7918;BME280;4004;42.624;23.386;2022-10-31T05:17:40;94724.84;;;12.77;82.77
7918;BME280;4004;42.624;23.386;2022-10-31T05:20:07;94716.47;;;13.02;82.20
7918;BME280;4004;42.624;23.386;2022-10-31T05:22:34;94728.38;;;13.20;81.02
7918;BME280;4004;42.624;23.386;2022-10-31T05:25:00;94735.66;;;13.36;80.08
7918;BME280;4004;42.624;23.386;2022-10-31T05:27:29;94742.13;;;13.31;77.90
7918;BME280;4004;42.624;23.386;2022-10-31T05:29:55;94735.78;;;13.04;78.24
7918;BME280;4004;42.624;23.386;2022-10-31T05:32:22;94746.88;;;12.99;79.02
7918;BME280;4004;42.624;23.386;2022-10-31T05:34:49;94743.59;;;13.09;78.84
7918;BME280;4004;42.624;23.386;2022-10-31T05:37:15;94751.00;;;13.12;78.84
7918;BME280;4004;42.624;23.386;2022-10-31T05:39:42;94747.88;;;13.10;78.74
7918;BME280;4004;42.624;23.386;2022-10-31T05:42:09;94745.31;;;13.17;78.09
7918;BME280;4004;42.624;23.386;2022-10-31T05:44:37;94753.00;;;13.15;77.60
7918;BME280;4004;42.624;23.386;2022-10-31T05:47:04;94755.97;;;13.10;77.72
7918;BME280;4004;42.624;23.386;2022-10-31T05:49:31;94753.91;;;13.03;78.26
7918;BME280;4004;42.624;23.386;2022-10-31T05:51:58;94745.84;;;12.68;79.52
7918;BME280;4004;42.624;23.386;2022-10-31T05:54:25;94749.63;;;12.63;80.41
7918;BME280;4004;42.624;23.386;2022-10-31T05:56:51;94765.47;;;12.65;80.68
7918;BME280;4004;42.624;23.386;2022-10-31T05:59:18;94763.97;;;12.68;80.87
7918;BME280;4004;42.624;23.386;2022-10-31T06:01:46;94760.56;;;12.71;81.21
7918;BME280;4004;42.624;23.386;2022-10-31T06:04:13;94765.94;;;12.71;81.06
7918;BME280;4004;42.624;23.386;2022-10-31T06:06:40;94766.72;;;12.71;81.60
7918;BME280;4004;42.624;23.386;2022-10-31T06:09:07;94770.72;;;12.77;81.64
7918;BME280;4004;42.624;23.386;2022-10-31T06:11:34;94776.16;;;13.16;80.44
7918;BME280;4004;42.624;23.386;2022-10-31T06:14:01;94777.47;;;13.65;78.00
7918;BME280;4004;42.624;23.386;2022-10-31T06:16:28;94785.06;;;14.25;76.54
7918;BME280;4004;42.624;23.386;2022-10-31T06:18:56;94793.88;;;14.68;73.41
7918;BME280;4004;42.624;23.386;2022-10-31T06:21:23;94789.94;;;15.19;71.23
7918;BME280;4004;42.624;23.386;2022-10-31T06:23:53;94786.28;;;15.71;68.26
7918;BME280;4004;42.624;23.386;2022-10-31T06:26:19;94799.81;;;16.05;64.43
7918;BME280;4004;42.624;23.386;2022-10-31T06:28:46;94808.03;;;16.16;61.95
7918;BME280;4004;42.624;23.386;2022-10-31T06:31:13;94804.38;;;16.42;60.66
7918;BME280;4004;42.624;23.386;2022-10-31T06:33:40;94801.09;;;16.74;59.06
7918;BME280;4004;42.624;23.386;2022-10-31T06:36:09;94811.84;;;17.08;57.84
7918;BME280;4004;42.624;23.386;2022-10-31T06:38:36;94817.44;;;17.36;55.88
7918;BME280;4004;42.624;23.386;2022-10-31T06:41:03;94808.53;;;17.50;54.88
7918;BME280;4004;42.624;23.386;2022-10-31T06:43:31;94814.38;;;17.56;54.45
7918;BME280;4004;42.624;23.386;2022-10-31T06:46:01;94815.69;;;17.84;53.97
7918;BME280;4004;42.624;23.386;2022-10-31T06:48:28;94812.25;;;18.19;53.18
7918;BME280;4004;42.624;23.386;2022-10-31T06:50:57;94818.84;;;18.04;52.09
7918;BME280;4004;42.624;23.386;2022-10-31T06:53:25;94820.34;;;17.87;52.79
7918;BME280;4004;42.624;23.386;2022-10-31T06:55:52;94817.56;;;17.72;53.00
7918;BME280;4004;42.624;23.386;2022-10-31T06:58:19;94817.63;;;17.87;52.22
7918;BME280;4004;42.624;23.386;2022-10-31T07:00:45;94820.75;;;17.89;52.16
7918;BME280;4004;42.624;23.386;2022-10-31T07:03:13;94823.50;;;18.03;51.81
7918;BME280;4004;42.624;23.386;2022-10-31T07:05:41;94813.78;;;18.06;51.94
7918;BME280;4004;42.624;23.386;2022-10-31T07:08:10;94820.00;;;18.06;51.81
7918;BME280;4004;42.624;23.386;2022-10-31T07:10:39;94815.66;;;17.87;51.93
7918;BME280;4004;42.624;23.386;2022-10-31T07:13:10;94816.88;;;17.97;51.73
7918;BME280;4004;42.624;23.386;2022-10-31T07:15:39;94820.81;;;18.21;51.63
7918;BME280;4004;42.624;23.386;2022-10-31T07:18:08;94815.78;;;18.55;50.86
7918;BME280;4004;42.624;23.386;2022-10-31T07:20:35;94811.09;;;18.84;50.09
7918;BME280;4004;42.624;23.386;2022-10-31T07:23:02;94806.72;;;19.23;49.62
7918;BME280;4004;42.624;23.386;2022-10-31T07:25:29;94811.72;;;19.53;48.78
7918;BME280;4004;42.624;23.386;2022-10-31T07:27:57;94811.66;;;19.67;48.08
7918;BME280;4004;42.624;23.386;2022-10-31T07:30:24;94805.78;;;19.76;48.18
7918;BME280;4004;42.624;23.386;2022-10-31T07:32:51;94793.50;;;20.09;47.79
7918;BME280;4004;42.624;23.386;2022-10-31T07:35:20;94795.00;;;20.21;47.23
7918;BME280;4004;42.624;23.386;2022-10-31T07:37:47;94795.78;;;20.25;47.03
7918;BME280;4004;42.624;23.386;2022-10-31T07:40:14;94798.13;;;20.23;46.94
7918;BME280;4004;42.624;23.386;2022-10-31T07:42:43;94792.75;;;20.09;47.42
7918;BME280;4004;42.624;23.386;2022-10-31T07:45:18;94799.88;;;19.88;48.06
7918;BME280;4004;42.624;23.386;2022-10-31T07:47:46;94813.59;;;19.74;48.54
7918;BME280;4004;42.624;23.386;2022-10-31T07:50:15;94811.75;;;19.42;49.50
7918;BME280;4004;42.624;23.386;2022-10-31T07:52:42;94806.72;;;19.23;49.84
7918;BME280;4004;42.624;23.386;2022-10-31T07:55:10;94806.41;;;18.99;50.33
7918;BME280;4004;42.624;23.386;2022-10-31T07:57:36;94804.88;;;18.91;50.59
7918;BME280;4004;42.624;23.386;2022-10-31T08:00:04;94810.34;;;18.84;51.28
7918;BME280;4004;42.624;23.386;2022-10-31T08:02:33;94813.41;;;19.08;50.67
7918;BME280;4004;42.624;23.386;2022-10-31T08:05:00;94812.56;;;19.32;50.01
7918;BME280;4004;42.624;23.386;2022-10-31T08:07:27;94808.25;;;19.42;49.70
7918;BME280;4004;42.624;23.386;2022-10-31T08:09:54;94805.53;;;19.38;49.62
7918;BME280;4004;42.624;23.386;2022-10-31T08:12:21;94808.63;;;19.48;49.34
7918;BME280;4004;42.624;23.386;2022-10-31T08:14:48;94808.63;;;19.48;49.18
7918;BME280;4004;42.624;23.386;2022-10-31T08:17:15;94805.13;;;19.43;49.40
7918;BME280;4004;42.624;23.386;2022-10-31T08:19:43;94810.94;;;19.49;49.41
7918;BME280;4004;42.624;23.386;2022-10-31T08:22:10;94807.09;;;19.39;49.56
7918;BME280;4004;42.624;23.386;2022-10-31T08:24:36;94802.88;;;19.17;50.06
7918;BME280;4004;42.624;23.386;2022-10-31T08:27:06;94810.28;;;19.09;50.79
7918;BME280;4004;42.624;23.386;2022-10-31T08:29:33;94814.53;;;19.24;50.10
7918;BME280;4004;42.624;23.386;2022-10-31T08:32:00;94807.91;;;19.22;50.39
7918;BME280;4004;42.624;23.386;2022-10-31T08:34:27;94808.69;;;19.22;50.41
7918;BME280;4004;42.624;23.386;2022-10-31T08:36:55;94801.66;;;19.29;50.12
7918;BME280;4004;42.624;23.386;2022-10-31T08:39:22;94806.31;;;19.32;50.34
7918;BME280;4004;42.624;23.386;2022-10-31T08:41:48;94801.28;;;19.30;50.13
7918;BME280;4004;42.624;23.386;2022-10-31T08:44:16;94801.66;;;19.32;49.75
7918;BME280;4004;42.624;23.386;2022-10-31T08:46:43;94800.47;;;19.37;49.93
7918;BME280;4004;42.624;23.386;2022-10-31T08:49:10;94803.22;;;19.37;49.97
7918;BME280;4004;42.624;23.386;2022-10-31T08:51:37;94805.56;;;19.35;49.90
7918;BME280;4004;42.624;23.386;2022-10-31T08:54:05;94809.03;;;19.42;49.72
7918;BME280;4004;42.624;23.386;2022-10-31T08:56:32;94803.97;;;19.41;49.93
7918;BME280;4004;42.624;23.386;2022-10-31T08:58:58;94798.53;;;19.41;50.15
7918;BME280;4004;42.624;23.386;2022-10-31T09:01:32;94794.25;;;19.33;50.14
7918;BME280;4004;42.624;23.386;2022-10-31T09:03:59;94800.84;;;19.42;50.08
7918;BME280;4004;42.624;23.386;2022-10-31T09:06:25;94798.88;;;19.50;50.04
7918;BME280;4004;42.624;23.386;2022-10-31T09:08:52;94796.13;;;19.57;49.79
7918;BME280;4004;42.624;23.386;2022-10-31T09:11:20;94798.44;;;19.59;49.83
7918;BME280;4004;42.624;23.386;2022-10-31T09:13:47;94796.16;;;19.46;49.86
7918;BME280;4004;42.624;23.386;2022-10-31T09:16:14;94794.56;;;19.53;49.73
7918;BME280;4004;42.624;23.386;2022-10-31T09:18:40;94799.66;;;19.51;50.06
7918;BME280;4004;42.624;23.386;2022-10-31T09:21:07;94799.19;;;19.63;49.56
7918;BME280;4004;42.624;23.386;2022-10-31T09:23:34;94794.53;;;19.63;49.67
7918;BME280;4004;42.624;23.386;2022-10-31T09:26:01;94794.91;;;19.69;49.34
7918;BME280;4004;42.624;23.386;2022-10-31T09:28:29;94790.66;;;19.61;49.33
7918;BME280;4004;42.624;23.386;2022-10-31T09:30:57;94797.63;;;19.65;49.51
7918;BME280;4004;42.624;23.386;2022-10-31T09:33:23;94794.19;;;19.54;49.76
7918;BME280;4004;42.624;23.386;2022-10-31T09:35:50;94781.72;;;19.57;49.30
7918;BME280;4004;42.624;23.386;2022-10-31T09:38:18;94790.66;;;19.61;49.70
7918;BME280;4004;42.624;23.386;2022-10-31T09:40:47;94791.41;;;19.61;49.80
7918;BME280;4004;42.624;23.386;2022-10-31T09:43:21;94785.97;;;19.61;49.81
7918;BME280;4004;42.624;23.386;2022-10-31T09:45:57;94798.41;;;19.70;49.91
7918;BME280;4004;42.624;23.386;2022-10-31T09:48:35;94782.81;;;19.63;50.21
7918;BME280;4004;42.624;23.386;2022-10-31T09:51:06;94789.03;;;19.74;49.77
7918;BME280;4004;42.624;23.386;2022-10-31T09:53:38;94784.00;;;19.69;49.67
7918;BME280;4004;42.624;23.386;2022-10-31T09:56:08;94788.63;;;19.76;49.72
7918;BME280;4004;42.624;23.386;2022-10-31T09:58:41;94785.09;;;19.82;49.13
7918;BME280;4004;42.624;23.386;2022-10-31T10:01:20;94780.06;;;19.74;49.38
7918;BME280;4004;42.624;23.386;2022-10-31T10:03:53;94780.44;;;19.79;48.76
7918;BME280;4004;42.624;23.386;2022-10-31T10:06:23;94769.19;;;19.70;49.00
7918;BME280;4004;42.624;23.386;2022-10-31T10:08:51;94770.72;;;19.75;48.85
7918;BME280;4004;42.624;23.386;2022-10-31T10:11:30;94765.25;;;19.78;48.99
7918;BME280;4004;42.624;23.386;2022-10-31T10:14:11;94757.03;;;19.82;49.12
7918;BME280;4004;42.624;23.386;2022-10-31T10:16:56;94761.69;;;19.85;48.27
7918;BME280;4004;42.624;23.386;2022-10-31T10:19:33;94762.88;;;19.80;47.63
7918;BME280;4004;42.624;23.386;2022-10-31T10:22:10;94756.66;;;19.83;47.65
7918;BME280;4004;42.624;23.386;2022-10-31T10:24:53;94751.59;;;19.82;47.54
7918;BME280;4004;42.624;23.386;2022-10-31T10:27:26;94747.72;;;19.79;48.05
7918;BME280;4004;42.624;23.386;2022-10-31T10:29:58;94750.34;;;19.94;47.80
7918;BME280;4004;42.624;23.386;2022-10-31T10:32:36;94748.38;;;19.94;47.75
7918;BME280;4004;42.624;23.386;2022-10-31T10:35:18;94736.25;;;20.02;47.82
7918;BME280;4004;42.624;23.386;2022-10-31T10:37:46;94730.44;;;19.97;47.52
7918;BME280;4004;42.624;23.386;2022-10-31T10:40:17;94736.16;;;20.13;47.10
7918;BME280;4004;42.624;23.386;2022-10-31T10:42:45;94739.59;;;20.21;46.95
7918;BME280;4004;42.624;23.386;2022-10-31T10:45:34;94732.53;;;20.31;46.22
7918;BME280;4004;42.624;23.386;2022-10-31T10:48:27;94731.34;;;20.32;46.07
7918;BME280;4004;42.624;23.386;2022-10-31T10:50:57;94721.63;;;20.27;45.95
7918;BME280;4004;42.624;23.386;2022-10-31T10:53:43;94731.41;;;20.24;46.23
7918;BME280;4004;42.624;23.386;2022-10-31T10:56:35;94723.22;;;20.24;46.23
7918;BME280;4004;42.624;23.386;2022-10-31T10:59:04;94728.66;;;20.24;46.10
7918;BME280;4004;42.624;23.386;2022-10-31T11:01:30;94730.97;;;20.29;46.00
7918;BME280;4004;42.624;23.386;2022-10-31T11:03:59;94725.59;;;20.19;45.99
7918;BME280;4004;42.624;23.386;2022-10-31T11:06:27;94719.81;;;20.09;46.16
7918;BME280;4004;42.624;23.386;2022-10-31T11:08:54;94717.13;;;20.06;46.51
7918;BME280;4004;42.624;23.386;2022-10-31T11:11:26;94712.81;;;20.08;46.38
7918;BME280;4004;42.624;23.386;2022-10-31T11:13:59;94715.56;;;20.05;46.61
7918;BME280;4004;42.624;23.386;2022-10-31T11:16:31;94706.19;;;20.06;46.61
7918;BME280;4004;42.624;23.386;2022-10-31T11:19:09;94713.06;;;20.25;46.36
7918;BME280;4004;42.624;23.386;2022-10-31T11:21:41;94699.38;;;20.28;46.26
7918;BME280;4004;42.624;23.386;2022-10-31T11:24:15;94701.22;;;20.42;45.61
7918;BME280;4004;42.624;23.386;2022-10-31T11:26:43;94698.09;;;20.44;45.59
7918;BME280;4004;42.624;23.386;2022-10-31T11:29:14;94696.13;;;20.44;45.88
7918;BME280;4004;42.624;23.386;2022-10-31T11:31:43;94696.50;;;20.43;46.01
7918;BME280;4004;42.624;23.386;2022-10-31T11:34:27;94687.47;;;20.49;45.16
7918;BME280;4004;42.624;23.386;2022-10-31T11:37:04;94687.84;;;20.52;44.76
7918;BME280;4004;42.624;23.386;2022-10-31T11:39:40;94689.03;;;20.50;44.62
7918;BME280;4004;42.624;23.386;2022-10-31T11:42:08;94686.34;;;20.47;44.82
7918;BME280;4004;42.624;23.386;2022-10-31T11:44:34;94679.25;;;20.53;44.69
7918;BME280;4004;42.624;23.386;2022-10-31T11:47:03;94676.56;;;20.49;44.78
7918;BME280;4004;42.624;23.386;2022-10-31T11:49:34;94680.03;;;20.57;44.38
7918;BME280;4004;42.624;23.386;2022-10-31T11:52:07;94675.72;;;20.56;44.33
7918;BME280;4004;42.624;23.386;2022-10-31T11:54:38;94671.88;;;20.50;44.66
7918;BME280;4004;42.624;23.386;2022-10-31T11:57:22;94675.38;;;20.50;44.94
7918;BME280;4004;42.624;23.386;2022-10-31T11:59:51;94673.38;;;20.58;44.65
7918;BME280;4004;42.624;23.386;2022-10-31T12:02:19;94668.72;;;20.59;44.67
7918;BME280;4004;42.624;23.386;2022-10-31T12:04:53;94666.38;;;20.54;44.73
7918;BME280;4004;42.624;23.386;2022-10-31T12:07:22;94642.03;;;20.32;44.59
7918;BME280;4004;42.624;23.386;2022-10-31T12:09:49;94661.34;;;20.52;44.51
7918;BME280;4004;42.624;23.386;2022-10-31T12:12:31;94648.09;;;20.47;44.48
7918;BME280;4004;42.624;23.386;2022-10-31T12:15:13;94664.28;;;20.72;44.26
7918;BME280;4004;42.624;23.386;2022-10-31T12:17:45;94669.03;;;20.64;44.54
7918;BME280;4004;42.624;23.386;2022-10-31T12:20:22;94665.94;;;20.62;44.64
7918;BME280;4004;42.624;23.386;2022-10-31T12:22:59;94672.81;;;20.74;44.36
7918;BME280;4004;42.624;23.386;2022-10-31T12:25:37;94667.00;;;20.72;44.49
7918;BME280;4004;42.624;23.386;2022-10-31T12:28:32;94663.53;;;20.68;44.56
7918;BME280;4004;42.624;23.386;2022-10-31T12:31:14;94659.97;;;20.71;44.60
7918;BME280;4004;42.624;23.386;2022-10-31T12:33:53;94668.53;;;20.77;44.39
7918;BME280;4004;42.624;23.386;2022-10-31T12:36:33;94662.50;;;20.89;44.39
7918;BME280;4004;42.624;23.386;2022-10-31T12:39:21;94661.72;;;20.92;44.43
7918;BME280;4004;42.624;23.386;2022-10-31T12:41:52;94655.88;;;20.90;44.23
7918;BME280;4004;42.624;23.386;2022-10-31T12:44:48;94660.69;;;21.09;43.80
7918;BME280;4004;42.624;23.386;2022-10-31T12:47:46;94659.69;;;21.27;43.07
7918;BME280;4004;42.624;23.386;2022-10-31T12:50:25;94662.69;;;21.36;42.65
7918;BME280;4004;42.624;23.386;2022-10-31T12:53:05;94651.84;;;21.29;42.95
7918;BME280;4004;42.624;23.386;2022-10-31T12:55:41;94657.69;;;21.31;43.10
7918;BME280;4004;42.624;23.386;2022-10-31T12:58:17;94665.94;;;21.27;43.00
7918;BME280;4004;42.624;23.386;2022-10-31T13:00:50;94658.53;;;21.28;43.18
7918;BME280;4004;42.624;23.386;2022-10-31T13:03:25;94659.97;;;21.36;42.97
7918;BME280;4004;42.624;23.386;2022-10-31T13:05:56;94661.97;;;21.32;42.92
7918;BME280;4004;42.624;23.386;2022-10-31T13:08:29;94660.69;;;21.40;42.81
7918;BME280;4004;42.624;23.386;2022-10-31T13:11:04;94664.63;;;21.39;43.05
7918;BME280;4004;42.624;23.386;2022-10-31T13:13:36;94654.09;;;21.41;42.84
7918;BME280;4004;42.624;23.386;2022-10-31T13:16:10;94657.59;;;21.42;42.91
7918;BME280;4004;42.624;23.386;2022-10-31T13:18:44;94662.22;;;21.45;43.04
7918;BME280;4004;42.624;23.386;2022-10-31T13:21:18;94663.00;;;21.45;42.80
7918;BME280;4004;42.624;23.386;2022-10-31T13:23:49;94661.72;;;21.53;42.79
7918;BME280;4004;42.624;23.386;2022-10-31T13:26:21;94661.31;;;21.55;42.25
7918;BME280;4004;42.624;23.386;2022-10-31T13:28:54;94661.72;;;21.53;42.17
7918;BME280;4004;42.624;23.386;2022-10-31T13:31:25;94664.78;;;21.59;42.15